메인 페이지
METAR-TAF:

METAR-TAF

공항 :

Northwest Arkansas Regional Airport

Fayetteville, 아칸소, 미국

위도: 36-16-55N, 경도: 094-18-25W, 고도: 392m

현재 날씨관측

예보는 55분 전, 08:53시(UTC)에 발표되었습니다.
17kt, 순간 최대 풍속 25kt
온도 4°C
습도 87%
기압 1023 hPa
시정: 16.1km
고도 900ft 상공 흐림
약한비

METAR: KXNA 150853Z AUTO 35017G25KT 10SM -RA OVC009 04/02 A3020 RMK AO2 RAB50 CIG 006V013 SLP225 P0000 60000 T00390017 51011

시각: 04:48 (09:48 UTC)

예보

예보는 4 시간 28분 전, 05:20시(UTC)에 발표되었습니다.
예보 대상 시간: 15일 06시부터 16일 06시까지 (UTC)
북북서12kt, 순간 최대 풍속 21kt
시정: 9.7km
고도 1000ft 상공 구름 많음
약한비, 박무
일시적
15일 06시부터 15일 10시까지 (UTC)
시정: 3.2km
고도 600ft 상공 구름 많음
박무
15일 1000시부터 (UTC)
12kt, 순간 최대 풍속 21kt
시정: 10km
고도 1000ft 상공 흐림
15일 1800시부터 (UTC)
10kt, 순간 최대 풍속 19kt
시정: 10km
고도 2000ft 상공 구름 많음
15일 2200시부터 (UTC)
11kt
시정: 10km
고도 3500ft 상공 구름 많음
16일 0200시부터 (UTC)
7kt
시정: 10km
고도 25000ft 상공 구름 많음

TAF: KXNA 150520Z 1506/1606 34012G21KT 6SM -RA BR BKN010 TEMPO 1506/1510 2SM BR BKN006 FM151000 35012G21KT P6SM OVC010 FM151800 36010G19KT P6SM BKN020 FM152200 36011KT P6SM BKN035 FM160200 36007KT P6SM BKN250

4,000개 이상의 공항 관측 자료 및 예보 (METAR 및 TAF 보고).

지도상에서 검색 가능한 기상관측소가 노란 점과 빨간 점으로 표시되어 있습니다.

기상관측소 명을 보려면 표시 위로 마우스를 이동하세요.

날씨 관측과 예보를 보려면 클릭하세요.

지도 변경 : 확대하려면 엑스 표시가 있는 녹색 버튼, 축소하려면 빼기 표시가 있는 녹색 버튼, 다음 페이지의 지도를 보려면 녹색 화살표를 클릭하세요.


METAR-TAF: